Time;durP1;ratioP1;P1;durP2;ratioP2;P2;SDS_P1;SDS_P2;PMS_P1;PMS_P2;Temp;Humidity;BMP_temperature;BMP_pressure;BME280_temperature;BME280_humidity;BME280_pressure;Samples;Min_cycle;Max_cycle;Signal;HPM_P1;HPM_P2
2022/07/28 00:02:06;;;;;;;10.13;9.13;;;;;;;11.57;62.70;100947.84;5121981;27;20031;-78
2022/07/28 00:04:33;;;;;;;9.80;9.02;;;;;;;11.54;62.89;100939.91;5099216;27;20035;-78
2022/07/28 00:06:58;;;;;;;10.18;9.48;;;;;;;11.46;62.92;100942.59;5102193;27;20030;-78
2022/07/28 00:09:24;;;;;;;10.27;9.27;;;;;;;11.44;62.44;100943.47;5123811;27;20039;-77
2022/07/28 00:11:49;;;;;;;11.32;10.43;;;;;;;11.43;62.57;100947.00;5119936;27;20041;-78
2022/07/28 00:14:14;;;;;;;10.43;9.50;;;;;;;11.17;64.66;100950.59;5123023;27;20031;-77
2022/07/28 00:16:40;;;;;;;10.32;9.52;;;;;;;11.15;65.07;100952.34;5123790;27;20126;-78
2022/07/28 00:19:05;;;;;;;10.60;9.63;;;;;;;11.27;64.68;100947.03;5122140;27;20118;-78
2022/07/28 00:21:30;;;;;;;9.68;8.98;;;;;;;11.40;63.84;100942.63;5120746;27;20039;-78
2022/07/28 00:23:56;;;;;;;11.48;10.07;;;;;;;11.39;64.31;100936.41;5122967;27;20045;-78
2022/07/28 00:26:22;;;;;;;9.70;8.82;;;;;;;11.37;63.37;100938.22;5120146;27;20043;-77
2022/07/28 00:28:47;;;;;;;9.98;9.02;;;;;;;11.38;63.12;100932.03;5105272;28;20027;-77
2022/07/28 00:31:13;;;;;;;9.13;8.45;;;;;;;11.38;63.10;100926.75;5102312;28;20436;-76
2022/07/28 00:33:38;;;;;;;10.30;9.40;;;;;;;11.44;62.79;100928.50;5121934;27;20034;-77
2022/07/28 00:36:05;;;;;;;10.73;9.93;;;;;;;11.40;64.11;100932.91;5104098;28;20390;-76
2022/07/28 00:38:31;;;;;;;9.75;8.85;;;;;;;11.25;63.69;100932.94;5102283;28;20047;-76
2022/07/28 00:41:11;;;;;;;9.65;8.95;;;;;;;11.23;63.49;100934.72;5123019;28;20539;-77
2022/07/28 00:43:43;;;;;;;9.88;8.93;;;;;;;11.26;62.74;100933.81;5122235;28;20120;-76
2022/07/28 00:46:08;;;;;;;10.05;9.38;;;;;;;11.26;63.10;100931.19;5118682;28;20118;-77
2022/07/28 00:48:43;;;;;;;10.88;9.70;;;;;;;11.24;63.84;100931.22;5102255;28;20110;-76
2022/07/28 00:51:09;;;;;;;10.85;10.00;;;;;;;11.12;64.71;100923.31;5106582;27;20405;-76
2022/07/28 00:53:36;;;;;;;10.13;9.43;;;;;;;11.12;63.92;100925.94;5127033;27;20034;-77
2022/07/28 00:56:01;;;;;;;9.65;9.05;;;;;;;11.08;63.85;100919.81;5124304;27;20474;-77
2022/07/28 00:58:27;;;;;;;9.93;9.23;;;;;;;11.03;63.65;100920.66;5108896;27;20099;-76
2022/07/28 01:00:53;;;;;;;10.35;9.32;;;;;;;10.97;63.83;100921.56;5124990;27;20067;-77
2022/07/28 01:03:18;;;;;;;11.45;10.38;;;;;;;10.94;64.58;100917.16;5105704;27;20039;-77
2022/07/28 01:06:13;;;;;;;10.68;9.82;;;;;;;10.90;65.77;100922.47;5104000;28;20606;-76
2022/07/28 01:08:50;;;;;;;10.60;9.80;;;;;;;10.93;65.32;100925.97;5126195;27;20086;-76
2022/07/28 01:11:25;;;;;;;9.57;8.82;;;;;;;11.01;64.30;100925.97;5122239;27;20469;-76
2022/07/28 01:14:00;;;;;;;11.10;9.55;;;;;;;11.04;64.43;100925.09;5123891;27;20036;-77
2022/07/28 01:16:26;;;;;;;10.23;9.45;;;;;;;11.00;64.35;100924.19;5122792;27;20027;-76
2022/07/28 01:19:21;;;;;;;10.20;9.50;;;;;;;10.99;64.58;100924.22;5125285;27;20041;-77
2022/07/28 01:21:47;;;;;;;9.80;9.20;;;;;;;10.93;65.17;100920.69;5124866;27;20084;-77
2022/07/28 01:24:56;;;;;;;10.27;9.07;;;;;;;10.86;65.84;100926.84;5120246;27;20039;-77
2022/07/28 01:27:40;;;;;;;9.77;9.07;;;;;;;10.80;65.37;100936.56;5125644;27;20106;-77
2022/07/28 01:30:14;;;;;;;11.00;10.23;;;;;;;10.69;66.68;100928.66;5122930;27;20067;-77
2022/07/28 01:32:51;;;;;;;10.48;9.88;;;;;;;10.53;67.28;100923.38;5123849;27;20114;-77
2022/07/28 01:35:22;;;;;;;10.88;10.07;;;;;;;10.46;67.63;100934.78;5125986;27;20023;-77
2022/07/28 01:37:53;;;;;;;10.57;9.75;;;;;;;10.52;66.63;100932.13;5108048;27;20043;-77
2022/07/28 01:40:24;;;;;;;13.70;10.30;;;;;;;10.51;66.31;100932.16;5117411;27;20111;-77
2022/07/28 01:42:54;;;;;;;9.98;9.07;;;;;;;10.43;66.53;100932.16;5090063;27;20168;-77
2022/07/28 01:45:20;;;;;;;9.82;9.10;;;;;;;10.49;66.01;100933.91;5088042;28;20031;-77
2022/07/28 01:47:47;;;;;;;10.00;9.30;;;;;;;10.53;65.72;100935.66;5126704;27;20042;-76
2022/07/28 01:50:15;;;;;;;9.95;9.13;;;;;;;10.55;65.47;100928.63;5123962;27;20128;-76
2022/07/28 01:52:43;;;;;;;10.27;9.50;;;;;;;10.58;65.56;100925.09;5106262;27;20114;-76
2022/07/28 01:55:10;;;;;;;9.45;8.75;;;;;;;10.62;65.40;100926.88;5125449;27;20130;-76
2022/07/28 01:57:36;;;;;;;10.15;9.55;;;;;;;10.59;65.28;100933.03;5104780;28;20429;-76
2022/07/28 02:00:05;;;;;;;9.98;9.18;;;;;;;10.52;65.52;100929.50;5118869;27;20028;-76
2022/07/28 02:02:39;;;;;;;10.00;9.30;;;;;;;10.44;65.75;100931.25;5123586;27;20039;-76
2022/07/28 02:05:07;;;;;;;10.32;9.57;;;;;;;10.37;65.84;100929.50;5123499;27;20520;-76
2022/07/28 02:07:34;;;;;;;11.15;10.00;;;;;;;10.37;66.03;100928.63;5118322;27;20065;-76
2022/07/28 02:10:01;;;;;;;9.70;9.00;;;;;;;10.42;65.49;100926.84;5123248;27;20043;-76
2022/07/28 02:12:27;;;;;;;10.50;9.50;;;;;;;10.36;65.59;100927.75;5124023;27;20036;-76
2022/07/28 02:14:53;;;;;;;9.40;8.80;;;;;;;10.33;67.31;100925.09;5123712;27;20056;-76
2022/07/28 02:17:24;;;;;;;11.07;10.07;;;;;;;10.33;67.21;100932.16;5125878;27;20409;-76
2022/07/28 02:19:51;;;;;;;11.40;10.43;;;;;;;10.34;68.53;100929.50;5082776;27;20405;-76
2022/07/28 02:22:17;;;;;;;11.27;10.10;;;;;;;10.35;68.63;100933.91;5124291;27;20429;-76
2022/07/28 02:24:44;;;;;;;10.63;9.75;;;;;;;10.29;68.15;100933.88;5124301;27;20062;-76
2022/07/28 02:27:22;;;;;;;10.35;9.60;;;;;;;10.26;68.54;100937.34;5123074;27;20066;-76
2022/07/28 02:29:49;;;;;;;10.27;9.52;;;;;;;10.20;67.95;100939.13;5119479;27;20541;-76
2022/07/28 02:32:37;;;;;;;10.30;9.63;;;;;;;10.15;68.47;100941.75;5123824;27;20028;-76
2022/07/28 02:35:21;;;;;;;9.88;9.15;;;;;;;10.05;70.27;100943.47;5122157;27;20092;-76
2022/07/28 02:37:52;;;;;;;10.48;9.45;;;;;;;10.03;69.74;100950.53;5120684;27;20085;-76
2022/07/28 02:40:20;;;;;;;9.18;8.48;;;;;;;9.99;71.13;100954.00;5123003;27;20504;-76
2022/07/28 02:42:48;;;;;;;10.52;9.57;;;;;;;9.94;71.05;100958.38;5118607;27;20035;-76
2022/07/28 02:45:15;;;;;;;10.13;9.18;;;;;;;9.92;69.62;100952.22;5106506;27;20194;-76
2022/07/28 02:47:49;;;;;;;10.85;9.50;;;;;;;9.93;69.64;100948.72;5105163;27;20031;-75
2022/07/28 02:50:19;;;;;;;9.10;8.48;;;;;;;9.87;70.35;100946.06;5122565;27;20485;-76
2022/07/28 02:52:45;;;;;;;10.85;9.05;;;;;;;9.81;71.20;100953.94;5118362;27;20081;-76
2022/07/28 02:55:13;;;;;;;11.98;8.70;;;;;;;9.72;71.08;100960.06;5123990;27;20047;-76
2022/07/28 02:57:40;;;;;;;10.13;9.32;;;;;;;9.70;70.64;100958.31;5124153;27;20107;-76
2022/07/28 03:00:06;;;;;;;10.35;8.18;;;;;;;9.71;70.71;100962.69;5104555;27;20038;-76
2022/07/28 03:02:35;;;;;;;8.60;8.00;;;;;;;9.71;70.80;100960.06;5106297;27;20038;-76
2022/07/28 03:05:01;;;;;;;10.00;9.10;;;;;;;9.66;71.53;100953.00;5116833;27;20214;-76
2022/07/28 03:07:28;;;;;;;10.75;8.68;;;;;;;9.61;70.78;100960.00;5120116;27;20039;-76
2022/07/28 03:09:54;;;;;;;9.95;9.05;;;;;;;9.60;70.50;100960.88;5123221;27;20038;-77
2022/07/28 03:12:19;;;;;;;7.82;7.10;;;;;;;9.58;71.28;100962.63;5120136;27;20023;-76
2022/07/28 03:14:45;;;;;;;7.75;7.25;;;;;;;9.52;71.82;100967.88;5126234;27;20114;-77
2022/07/28 03:17:10;;;;;;;8.38;7.88;;;;;;;9.50;71.63;100969.63;5106502;27;20038;-77
2022/07/28 03:19:36;;;;;;;8.55;8.02;;;;;;;9.48;72.16;100976.63;5122282;27;20058;-76
2022/07/28 03:22:01;;;;;;;7.18;6.78;;;;;;;9.46;71.51;100981.03;5125930;27;20126;-77
2022/07/28 03:24:31;;;;;;;8.10;7.60;;;;;;;9.47;71.64;100985.41;5124132;27;20035;-77
2022/07/28 03:27:08;;;;;;;8.18;7.65;;;;;;;9.47;71.54;100985.41;5124485;27;20042;-77
2022/07/28 03:29:34;;;;;;;8.13;7.63;;;;;;;9.41;71.88;100988.03;5120390;27;20385;-76
2022/07/28 03:32:00;;;;;;;8.23;7.53;;;;;;;9.30;73.12;100985.31;5124259;27;20043;-76
2022/07/28 03:34:27;;;;;;;11.23;7.03;;;;;;;9.31;72.61;100988.84;5121646;27;20040;-76
2022/07/28 03:37:32;;;;;;;8.23;7.57;;;;;;;9.29;73.52;100985.31;5106354;27;20015;-76
2022/07/28 03:39:59;;;;;;;8.43;7.65;;;;;;;9.28;74.57;100984.44;5096561;27;20039;-76
2022/07/28 03:42:26;;;;;;;7.85;7.25;;;;;;;9.35;74.03;100985.34;5104774;27;20039;-76
2022/07/28 03:44:52;;;;;;;7.50;7.00;;;;;;;9.46;73.80;100978.41;5120767;27;20031;-77
2022/07/28 03:47:23;;;;;;;7.47;6.97;;;;;;;9.57;73.84;100981.97;5105688;27;20042;-77
2022/07/28 03:49:49;;;;;;;7.47;7.05;;;;;;;9.62;72.99;100985.50;5122609;27;20482;-76
2022/07/28 03:52:15;;;;;;;7.45;6.95;;;;;;;9.69;72.75;100986.38;5121373;27;20496;-76
2022/07/28 03:54:40;;;;;;;8.25;7.35;;;;;;;9.75;72.34;100988.19;5123540;27;20042;-76
2022/07/28 03:57:06;;;;;;;8.15;7.55;;;;;;;9.76;71.59;100993.47;5102575;28;20043;-76
2022/07/28 03:59:31;;;;;;;7.53;6.93;;;;;;;9.75;71.84;100991.72;5123728;27;20042;-76
2022/07/28 04:01:56;;;;;;;8.50;7.93;;;;;;;9.80;71.92;100983.84;5116379;27;20102;-75
2022/07/28 04:04:22;;;;;;;7.03;6.63;;;;;;;9.92;71.47;100993.53;5124879;27;20062;-76
2022/07/28 04:06:47;;;;;;;8.35;7.68;;;;;;;9.95;73.29;100994.41;5122835;27;20039;-75
2022/07/28 04:09:14;;;;;;;7.07;6.57;;;;;;;9.97;72.68;100992.66;5121191;27;20035;-76
2022/07/28 04:11:40;;;;;;;9.18;6.82;;;;;;;10.11;71.96;100987.44;5119852;27;20055;-76
2022/07/28 04:14:05;;;;;;;8.07;7.38;;;;;;;10.22;70.20;100983.09;5123973;27;20147;-77
2022/07/28 04:16:30;;;;;;;8.27;7.68;;;;;;;10.28;70.69;100985.75;5121425;27;20132;-75
2022/07/28 04:18:55;;;;;;;7.43;6.82;;;;;;;10.37;70.48;100987.53;5121401;27;20133;-76
2022/07/28 04:21:21;;;;;;;7.63;7.03;;;;;;;10.50;69.75;100984.03;5118730;27;20039;-73
2022/07/28 04:23:47;;;;;;;7.60;7.00;;;;;;;10.64;69.19;100988.47;5127509;27;20057;-75
2022/07/28 04:26:12;;;;;;;7.28;6.68;;;;;;;10.78;68.73;100992.00;5126448;27;20033;-75
2022/07/28 04:28:38;;;;;;;8.55;7.18;;;;;;;10.87;69.49;100989.38;5119169;27;20062;-75
2022/07/28 04:31:03;;;;;;;7.35;6.28;;;;;;;10.98;68.50;100989.38;5123617;27;20035;-75
2022/07/28 04:33:29;;;;;;;6.50;6.07;;;;;;;11.13;68.30;100991.09;5122216;27;20546;-75
2022/07/28 04:35:54;;;;;;;6.97;6.45;;;;;;;11.28;68.25;100988.44;5122458;27;20024;-75
2022/07/28 04:38:20;;;;;;;6.50;6.10;;;;;;;11.40;67.76;100991.06;5120311;27;20043;-74
2022/07/28 04:40:48;;;;;;;7.47;6.07;;;;;;;11.55;67.19;100986.59;5117394;28;20036;-75
2022/07/28 04:43:14;;;;;;;9.38;6.75;;;;;;;11.64;67.53;100994.53;5089127;28;20043;-75
2022/07/28 04:45:39;;;;;;;7.75;7.15;;;;;;;11.72;67.79;101003.31;5117632;28;20043;-75
2022/07/28 04:48:05;;;;;;;6.78;6.38;;;;;;;11.86;67.05;100995.34;5109725;28;20038;-75
2022/07/28 04:50:31;;;;;;;6.93;6.40;;;;;;;12.04;67.13;100989.09;5118555;28;20039;-76
2022/07/28 04:52:57;;;;;;;6.90;6.40;;;;;;;12.15;66.22;100987.25;5109206;28;20076;-76
2022/07/28 04:55:24;;;;;;;6.90;6.20;;;;;;;12.31;66.25;100989.84;5117947;28;20039;-76
2022/07/28 04:57:49;;;;;;;6.68;5.95;;;;;;;12.42;66.52;100986.25;5119459;28;20046;-76
2022/07/28 05:00:15;;;;;;;7.00;6.40;;;;;;;12.57;65.62;100979.06;5124787;28;20401;-76
2022/07/28 05:02:43;;;;;;;6.65;6.15;;;;;;;12.78;65.05;100984.19;5118441;28;20039;-76
2022/07/28 05:05:09;;;;;;;5.78;5.32;;;;;;;12.95;64.21;100976.13;5118238;28;20048;-76
2022/07/28 05:07:34;;;;;;;9.30;6.60;;;;;;;13.03;63.93;100973.41;5122387;28;20046;-76
2022/07/28 05:10:00;;;;;;;6.68;6.10;;;;;;;13.18;63.27;100973.28;5119682;28;20054;-76
2022/07/28 05:12:26;;;;;;;6.82;6.32;;;;;;;13.27;63.14;100974.97;5104070;28;20114;-76
2022/07/28 05:14:51;;;;;;;6.30;5.75;;;;;;;13.32;62.99;100981.97;5120670;28;20533;-76
2022/07/28 05:17:16;;;;;;;7.70;7.00;;;;;;;13.51;62.35;100980.00;5121734;28;20034;-76
2022/07/28 05:19:42;;;;;;;6.63;5.93;;;;;;;13.69;62.26;100976.28;5122049;28;20035;-76
2022/07/28 05:22:07;;;;;;;6.60;5.85;;;;;;;13.79;61.72;100985.00;5119865;28;20050;-76
2022/07/28 05:24:32;;;;;;;6.05;5.50;;;;;;;13.93;61.73;100975.09;5122742;28;20061;-76
2022/07/28 05:26:58;;;;;;;15.15;5.63;;;;;;;13.98;61.40;100977.69;5119618;28;20454;-76
2022/07/28 05:29:23;;;;;;;7.10;6.45;;;;;;;14.01;61.55;100978.50;5122604;28;20031;-76
2022/07/28 05:31:48;;;;;;;6.50;6.00;;;;;;;14.10;61.68;100982.84;5118646;28;20050;-76
2022/07/28 05:34:14;;;;;;;6.05;5.50;;;;;;;14.20;61.91;100983.56;5113788;27;20042;-76
2022/07/28 05:36:39;;;;;;;7.80;5.68;;;;;;;14.40;61.12;100977.97;5122084;27;20038;-76
2022/07/28 05:39:04;;;;;;;7.10;6.40;;;;;;;14.51;60.59;100981.34;5114661;27;20039;-76
2022/07/28 05:41:30;;;;;;;8.57;6.72;;;;;;;14.63;60.06;100977.69;5103492;27;20039;-75
2022/07/28 05:43:57;;;;;;;6.88;5.38;;;;;;;14.68;60.28;100986.44;5132729;27;20031;-76
2022/07/28 05:46:22;;;;;;;7.07;6.38;;;;;;;14.72;59.64;100988.13;5125729;27;20157;-76
2022/07/28 05:48:48;;;;;;;7.07;6.38;;;;;;;14.83;59.72;100991.53;5123838;27;20110;-76
2022/07/28 05:51:13;;;;;;;8.43;5.68;;;;;;;15.03;58.95;100984.97;5123880;27;20035;-76
2022/07/28 05:53:38;;;;;;;5.43;4.75;;;;;;;15.27;58.75;100984.56;5125804;27;20046;-76
2022/07/28 05:56:04;;;;;;;6.38;5.80;;;;;;;15.50;58.73;100988.56;5122956;27;20039;-76
2022/07/28 05:58:30;;;;;;;5.97;5.47;;;;;;;15.72;57.79;100995.25;5119147;27;20038;-76
2022/07/28 06:01:00;;;;;;;6.25;5.65;;;;;;;16.01;57.46;100991.13;5124121;27;20119;-76
2022/07/28 06:03:30;;;;;;;6.63;6.10;;;;;;;16.35;57.13;100996.59;5127393;27;20405;-76
2022/07/28 06:05:57;;;;;;;5.55;5.15;;;;;;;16.62;56.04;100983.53;5076659;28;20039;-76
2022/07/28 06:08:26;;;;;;;7.90;6.20;;;;;;;16.90;54.56;100988.19;5120955;27;20039;-76
2022/07/28 06:11:01;;;;;;;8.18;5.60;;;;;;;17.07;53.90;100991.31;5114618;27;20117;-76
2022/07/28 06:13:28;;;;;;;6.32;5.35;;;;;;;17.29;53.64;100987.19;5119599;27;20038;-76
2022/07/28 06:15:53;;;;;;;6.40;5.88;;;;;;;17.46;52.58;100989.41;5098809;27;20051;-76
2022/07/28 06:18:20;;;;;;;6.18;5.03;;;;;;;17.52;51.94;100986.53;5116448;27;20089;-76
2022/07/28 06:20:46;;;;;;;5.57;5.07;;;;;;;17.64;51.64;100997.81;5127541;27;20023;-77
2022/07/28 06:23:11;;;;;;;9.15;5.90;;;;;;;17.70;52.04;100989.63;5119751;27;20129;-76
2022/07/28 06:25:36;;;;;;;6.32;4.72;;;;;;;17.79;52.26;100996.50;5128023;27;20040;-76
2022/07/28 06:28:02;;;;;;;8.23;5.38;;;;;;;17.94;52.08;101001.44;5122414;27;20046;-77
2022/07/28 06:30:28;;;;;;;5.82;5.30;;;;;;;18.06;51.54;100994.88;5133262;27;20035;-77
2022/07/28 06:32:54;;;;;;;5.57;5.18;;;;;;;18.23;51.28;100997.88;5129328;27;20657;-76
2022/07/28 06:35:20;;;;;;;5.22;4.70;;;;;;;18.38;50.31;100992.06;5124032;27;20121;-77
2022/07/28 06:37:48;;;;;;;6.63;6.03;;;;;;;18.58;49.46;100988.78;5124850;27;20062;-77
2022/07/28 06:40:14;;;;;;;7.78;7.07;;;;;;;18.66;49.72;100998.34;5107018;27;20486;-77
2022/07/28 06:42:41;;;;;;;6.65;6.15;;;;;;;18.82;49.31;100992.47;5124416;27;20035;-77
2022/07/28 06:45:08;;;;;;;6.38;5.88;;;;;;;18.97;48.54;100993.78;5107122;27;20027;-77
2022/07/28 06:47:34;;;;;;;11.38;6.47;;;;;;;19.09;48.02;100995.16;5095621;27;20035;-77
2022/07/28 06:49:59;;;;;;;6.95;6.00;;;;;;;19.21;48.66;100986.72;5123192;27;20564;-77
2022/07/28 06:52:25;;;;;;;6.82;5.63;;;;;;;19.43;48.19;100988.63;5124176;27;20023;-77
2022/07/28 06:54:52;;;;;;;8.68;6.35;;;;;;;19.55;47.58;100990.88;5122128;27;20037;-77
2022/07/28 06:57:21;;;;;;;8.30;6.85;;;;;;;19.65;46.74;100981.59;5118645;27;20482;-77
2022/07/28 06:59:49;;;;;;;6.25;5.75;;;;;;;19.63;46.08;100986.13;5106136;27;20070;-77
2022/07/28 07:02:16;;;;;;;7.05;6.35;;;;;;;19.80;47.04;100992.69;5123871;27;20543;-77
2022/07/28 07:04:42;;;;;;;6.50;5.80;;;;;;;20.05;46.58;100980.13;5121707;27;20039;-77
2022/07/28 07:07:08;;;;;;;14.02;6.85;;;;;;;20.28;46.02;100984.59;5122452;27;20045;-77
2022/07/28 07:09:33;;;;;;;7.25;6.70;;;;;;;20.55;46.17;100976.41;5125005;27;20038;-77
2022/07/28 07:11:58;;;;;;;12.88;7.28;;;;;;;20.81;45.27;100977.16;5118666;27;20114;-77
2022/07/28 07:14:24;;;;;;;6.90;6.32;;;;;;;20.91;44.54;100974.03;5117183;27;20043;-77
2022/07/28 07:16:50;;;;;;;6.75;6.25;;;;;;;20.88;44.45;100984.88;5115874;27;20034;-78
2022/07/28 07:19:16;;;;;;;6.32;5.78;;;;;;;20.96;44.56;100981.88;5119154;27;20405;-77
2022/07/28 07:21:41;;;;;;;6.32;5.93;;;;;;;21.07;44.03;100984.97;5124790;27;20046;-77
2022/07/28 07:24:07;;;;;;;7.07;6.53;;;;;;;21.25;43.96;100977.94;5118738;22;20078;-77
2022/07/28 07:26:32;;;;;;;5.70;5.25;;;;;;;21.33;43.16;100969.56;5095818;28;20067;-77
2022/07/28 07:28:57;;;;;;;6.80;6.40;;;;;;;21.31;43.32;100976.81;5102605;28;20039;-77
2022/07/28 07:31:23;;;;;;;6.85;6.22;;;;;;;21.44;43.23;100973.53;5082083;28;20089;-78
2022/07/28 07:33:48;;;;;;;6.30;5.90;;;;;;;21.70;42.52;100974.19;5097594;28;20099;-77
2022/07/28 07:36:13;;;;;;;7.72;7.13;;;;;;;21.91;42.10;100977.69;5097002;28;20178;-77
2022/07/28 07:38:39;;;;;;;8.02;7.13;;;;;;;21.98;41.57;100972.91;5104691;28;20118;-77
2022/07/28 07:41:04;;;;;;;6.47;6.05;;;;;;;22.00;41.38;100971.03;5099491;28;20447;-77
2022/07/28 07:43:30;;;;;;;7.70;7.10;;;;;;;21.90;41.58;100973.25;5099935;28;20447;-77
2022/07/28 07:45:55;;;;;;;9.50;6.57;;;;;;;21.84;41.31;100981.59;5105047;28;20035;-77
2022/07/28 07:48:20;;;;;;;7.07;6.45;;;;;;;21.81;42.13;100981.75;5103916;28;20466;-77
2022/07/28 07:50:45;;;;;;;6.65;6.15;;;;;;;21.70;41.89;100976.88;5107108;28;20040;-77
2022/07/28 07:53:11;;;;;;;6.63;6.00;;;;;;;21.52;42.13;100983.94;5108903;28;20023;-77
2022/07/28 07:55:36;;;;;;;6.38;5.97;;;;;;;21.48;42.26;100984.13;5094716;28;20418;-77
2022/07/28 07:58:02;;;;;;;7.70;7.20;;;;;;;21.44;42.14;100973.53;5096836;28;20491;-77
2022/07/28 08:00:28;;;;;;;7.68;6.97;;;;;;;21.42;42.41;100978.09;5102485;28;20074;-77
2022/07/28 08:02:53;;;;;;;8.43;7.10;;;;;;;21.32;42.19;100971.34;5105318;28;20039;-77
2022/07/28 08:05:18;;;;;;;7.13;6.72;;;;;;;21.36;41.81;100969.41;5095809;28;20046;-77
2022/07/28 08:07:44;;;;;;;6.95;6.55;;;;;;;21.49;41.97;100969.78;5094066;28;20067;-77
2022/07/28 08:10:09;;;;;;;6.60;6.18;;;;;;;21.57;42.36;100967.63;5103361;28;20031;-77
2022/07/28 08:12:35;;;;;;;7.70;6.93;;;;;;;21.69;42.19;100961.69;5100794;28;20053;-77
2022/07/28 08:15:00;;;;;;;7.35;6.85;;;;;;;21.81;42.08;100971.00;5100821;28;20465;-77
2022/07/28 08:17:26;;;;;;;7.20;6.70;;;;;;;21.85;41.48;100973.50;5101841;28;20127;-78
2022/07/28 08:19:51;;;;;;;6.93;6.53;;;;;;;21.82;41.35;100972.75;5096067;28;20727;-77
2022/07/28 08:22:17;;;;;;;7.13;6.72;;;;;;;21.74;40.34;100970.41;5096735;28;20446;-78
2022/07/28 08:24:42;;;;;;;7.95;7.35;;;;;;;21.71;40.47;100975.91;5106341;28;20031;-77
2022/07/28 08:27:08;;;;;;;6.65;6.25;;;;;;;21.84;40.78;100970.84;5095517;28;20032;-77
2022/07/28 08:29:33;;;;;;;7.82;7.15;;;;;;;21.92;39.77;100973.19;5096218;28;20452;-78
2022/07/28 08:32:02;;;;;;;9.18;7.75;;;;;;;21.96;39.52;100977.50;5105639;28;20074;-77
2022/07/28 08:34:30;;;;;;;7.28;6.78;;;;;;;21.99;39.83;100969.28;5101391;28;20048;-77
2022/07/28 08:36:55;;;;;;;7.00;6.60;;;;;;;22.04;39.09;100972.63;5103451;28;20032;-77
2022/07/28 08:39:21;;;;;;;7.78;7.28;;;;;;;22.08;38.76;100969.72;5100200;28;20046;-78
2022/07/28 08:42:14;;;;;;;6.50;6.10;;;;;;;22.15;37.68;100970.31;5099335;28;20028;-77
2022/07/28 08:44:48;;;;;;;7.10;6.55;;;;;;;22.25;37.14;100976.16;5096403;28;20036;-77
2022/07/28 08:47:14;;;;;;;8.77;6.78;;;;;;;21.98;37.17;100967.53;5108819;28;20067;-78
2022/07/28 08:49:41;;;;;;;18.67;8.80;;;;;;;22.06;37.53;100971.63;5097196;28;20043;-77
2022/07/28 08:52:12;;;;;;;7.43;6.93;;;;;;;22.23;38.25;100968.16;5098944;28;20421;-78
2022/07/28 08:54:44;;;;;;;7.68;7.25;;;;;;;22.43;38.00;100953.75;5101437;28;20371;-77
2022/07/28 08:57:14;;;;;;;8.23;6.15;;;;;;;22.57;37.57;100960.28;5101838;28;20417;-78
2022/07/28 08:59:40;;;;;;;7.13;6.72;;;;;;;22.67;37.47;100961.56;5097696;28;20096;-77
2022/07/28 09:02:10;;;;;;;7.10;6.60;;;;;;;22.69;35.98;100965.91;5101411;28;20040;-77
2022/07/28 09:04:37;;;;;;;6.75;6.13;;;;;;;22.64;36.31;100959.03;5101749;28;20044;-77
2022/07/28 09:07:04;;;;;;;7.38;6.95;;;;;;;22.23;36.07;100956.53;5102374;28;20051;-77
2022/07/28 09:09:29;;;;;;;7.13;6.65;;;;;;;22.53;36.65;100964.91;5103280;28;20063;-77
2022/07/28 09:11:55;;;;;;;7.63;7.05;;;;;;;22.81;36.10;100953.66;5107424;28;20074;-77
2022/07/28 09:14:20;;;;;;;7.78;7.28;;;;;;;22.95;34.02;100944.88;5100672;22;20052;-77
2022/07/28 09:16:46;;;;;;;6.75;6.25;;;;;;;22.96;33.81;100946.63;5077741;28;20129;-77
2022/07/28 09:19:11;;;;;;;6.75;6.32;;;;;;;22.97;34.15;100951.09;5094627;28;20047;-77
2022/07/28 09:21:37;;;;;;;7.15;6.47;;;;;;;23.08;33.82;100951.44;5093071;28;20035;-77
2022/07/28 09:24:02;;;;;;;7.70;7.28;;;;;;;23.06;33.54;100950.63;5090250;28;20414;-77
2022/07/28 09:26:28;;;;;;;8.43;7.00;;;;;;;23.08;34.26;100951.44;5076231;28;20481;-77
2022/07/28 09:28:55;;;;;;;7.07;6.57;;;;;;;22.99;34.15;100949.19;5095213;28;20079;-77
2022/07/28 09:31:23;;;;;;;8.07;7.40;;;;;;;23.01;34.32;100938.38;5094243;28;20174;-77
2022/07/28 09:33:57;;;;;;;7.53;6.93;;;;;;;23.18;34.62;100947.28;5097437;28;20747;-77
2022/07/28 09:36:23;;;;;;;7.93;7.32;;;;;;;23.27;34.86;100948.63;5092042;28;20501;-77
2022/07/28 09:38:48;;;;;;;8.60;8.10;;;;;;;23.52;34.38;100950.88;5094828;28;20115;-77
2022/07/28 09:41:17;;;;;;;8.05;7.28;;;;;;;23.77;34.19;100939.69;5075806;28;20047;-76
2022/07/28 09:43:44;;;;;;;7.07;6.68;;;;;;;23.79;33.52;100943.19;5092829;28;20046;-77
2022/07/28 09:46:13;;;;;;;6.75;6.35;;;;;;;23.87;33.43;100934.69;5092645;28;20036;-77
2022/07/28 09:48:47;;;;;;;8.27;7.63;;;;;;;24.01;33.03;100933.91;5094456;28;20387;-77
2022/07/28 09:51:13;;;;;;;6.78;6.38;;;;;;;23.89;33.20;100940.84;5093125;28;20044;-77
2022/07/28 09:53:39;;;;;;;7.82;7.15;;;;;;;24.04;32.93;100931.03;5094477;28;20032;-77
2022/07/28 09:56:06;;;;;;;8.45;7.85;;;;;;;24.09;32.79;100930.78;5094319;28;20016;-77
2022/07/28 09:58:31;;;;;;;8.55;7.85;;;;;;;24.19;32.95;100937.41;5076116;28;20080;-76
2022/07/28 10:01:03;;;;;;;6.88;6.47;;;;;;;24.23;31.96;100936.25;5088214;28;20055;-76
2022/07/28 10:03:29;;;;;;;7.25;6.55;;;;;;;24.18;31.97;100932.94;5096539;28;20509;-76
2022/07/28 10:05:57;;;;;;;6.32;5.93;;;;;;;24.34;32.53;100927.53;5092994;28;20036;-76
2022/07/28 10:08:40;;;;;;;7.10;6.70;;;;;;;24.39;31.10;100925.44;5091041;28;20351;-76
2022/07/28 10:11:06;;;;;;;7.55;6.95;;;;;;;24.53;31.49;100932.81;5091746;28;20126;-76
2022/07/28 10:13:31;;;;;;;7.03;6.63;;;;;;;24.49;31.61;100932.94;5089536;28;20386;-77
2022/07/28 10:16:10;;;;;;;7.22;6.63;;;;;;;24.44;30.66;100923.34;5085321;28;20037;-77
2022/07/28 10:18:38;;;;;;;6.65;5.97;;;;;;;24.48;31.83;100919.56;5091234;28;20105;-77
2022/07/28 10:21:07;;;;;;;7.15;6.65;;;;;;;24.65;31.86;100919.47;5091397;28;20028;-77
2022/07/28 10:23:35;;;;;;;7.55;7.05;;;;;;;24.82;31.51;100910.34;5093153;28;20505;-77
2022/07/28 10:26:04;;;;;;;7.18;6.68;;;;;;;25.02;31.25;100908.28;5075214;28;20059;-76
2022/07/28 10:28:33;;;;;;;8.25;7.05;;;;;;;25.29;30.51;100920.13;5089831;28;20441;-77
2022/07/28 10:31:01;;;;;;;6.75;6.25;;;;;;;25.55;29.78;100915.81;5074757;28;20028;-77
2022/07/28 10:33:30;;;;;;;7.63;6.93;;;;;;;25.46;29.22;100912.81;5093770;28;20044;-77
2022/07/28 10:35:58;;;;;;;6.57;6.15;;;;;;;25.59;30.25;100911.94;5093213;28;20040;-77
2022/07/28 10:38:32;;;;;;;7.50;7.05;;;;;;;25.82;28.89;100904.22;5071963;28;20036;-77
2022/07/28 10:41:02;;;;;;;6.45;5.95;;;;;;;25.80;28.00;100904.31;5092535;28;20043;-77
2022/07/28 10:43:30;;;;;;;6.00;5.60;;;;;;;25.74;28.64;100901.13;5093781;28;20541;-77
2022/07/28 10:45:57;;;;;;;6.88;6.38;;;;;;;25.94;28.83;100889.09;5065012;28;20035;-76
2022/07/28 10:48:22;;;;;;;6.18;5.65;;;;;;;26.00;28.66;100885.97;5093000;28;20036;-77
2022/07/28 10:50:48;;;;;;;6.45;6.05;;;;;;;25.93;28.28;100885.50;5074912;28;20098;-77
2022/07/28 10:53:31;;;;;;;6.85;6.32;;;;;;;26.09;28.51;100879.09;5092495;28;20085;-77
2022/07/28 10:56:02;;;;;;;8.45;6.63;;;;;;;26.23;28.78;100881.78;5051279;28;20046;-77
2022/07/28 10:59:06;;;;;;;7.18;6.43;;;;;;;26.27;28.70;100877.88;5092166;28;20028;-77
2022/07/28 11:01:36;;;;;;;8.77;6.75;;;;;;;26.28;28.57;100876.03;5042153;28;20058;-76
2022/07/28 11:04:01;;;;;;;8.18;7.60;;;;;;;26.42;28.99;100870.56;5092384;28;20528;-76
2022/07/28 11:06:29;;;;;;;7.78;5.85;;;;;;;26.47;28.67;100871.13;5082959;28;20047;-76
2022/07/28 11:08:57;;;;;;;10.35;6.18;;;;;;;26.20;28.09;100866.59;5092749;28;20071;-76
2022/07/28 11:11:42;;;;;;;6.80;6.40;;;;;;;26.20;28.39;100872.00;5065962;28;20032;-77
2022/07/28 11:14:23;;;;;;;7.13;6.60;;;;;;;26.36;27.81;100871.00;5088395;28;20040;-76
2022/07/28 11:17:03;;;;;;;7.15;6.55;;;;;;;26.53;27.88;100868.03;5096530;28;20036;-76
2022/07/28 11:19:53;;;;;;;7.75;7.25;;;;;;;26.88;27.35;100868.34;5092274;28;20039;-76
2022/07/28 11:22:20;;;;;;;7.03;6.63;;;;;;;26.90;27.87;100865.50;5089825;28;20560;-77
2022/07/28 11:25:09;;;;;;;6.78;6.28;;;;;;;26.72;27.20;100866.78;5092760;28;20040;-77
2022/07/28 11:27:50;;;;;;;6.75;6.35;;;;;;;26.60;27.66;100863.94;5091185;28;20035;-77
2022/07/28 11:30:19;;;;;;;7.40;6.90;;;;;;;26.42;27.18;100857.91;5089724;28;20059;-77